Carmel — 9HKK8 — position and weather

sailwx.info

Track history (hours):
 
Tides and Currents Weather Stations Pressure Air Temp Water Temp Dewpoint Dewpoint Depression Visibility Wind Speed Wind Dir Waves Ship Positions

Carmel

Last reported at 2017-Sep-26 08:03 UTC. Time now 2017-Sep-26 18:36 UTC.
Position N 35°57' E 014°41'.

Length 244 m; draft 8.2 m.

Type: Ship. MMSI: 249583000.

Date/timePositionNaut miles runAvg speedWind from/ knotsBaromVisibWave heightAir tempDewpointWater temp
2017-Sep-26 08:03N 35°57' E 014°41'1 8.8
2017-Sep-26 07:54N 35°57' E 014°40'3 7.4
2017-Sep-26 07:29N 35°56' E 014°36'1 1.2
2017-Sep-26 07:00N 35°57' E 014°36'0 0.8
2017-Sep-26 06:30N 35°57' E 014°36'1 2.3
2017-Sep-26 06:00N 35°58' E 014°36'3 6.2
2017-Sep-26 05:30N 36°01' E 014°37'4 8.0
2017-Sep-26 05:00N 36°05' E 014°38'3 5.1
2017-Sep-26 04:30N 36°07' E 014°37'4 8.1
2017-Sep-26 04:00N 36°09' E 014°33'5 9.0
2017-Sep-26 03:30N 36°11' E 014°28'4 8.7
2017-Sep-26 02:59N 36°13' E 014°23'4 8.7
2017-Sep-26 02:30N 36°15' E 014°19'1 2.9
2017-Sep-26 02:00N 36°16' E 014°20'3 6.7
2017-Sep-26 01:30N 36°16' E 014°16'4 9.1
2017-Sep-26 01:01N 36°18' E 014°11'5 9.0
2017-Sep-26 00:30N 36°20' E 014°06'5 9.1
2017-Sep-26 00:00N 36°22' E 014°01'4 9.1
2017-Sep-25 23:31N 36°24' E 013°56'4 8.9
2017-Sep-25 23:01N 36°25' E 013°51'4 8.9
2017-Sep-25 22:31N 36°27' E 013°46'5 9.0
2017-Sep-25 22:00N 36°29' E 013°41'5 8.9
2017-Sep-25 21:30N 36°31' E 013°36'4 9.0
2017-Sep-25 21:00N 36°33' E 013°30'56 8.9
2017-Sep-25 14:40N 36°55' E 012°26'  
2017-Sep-22 01:56N 44°17' E 008°28'0 0.0
2017-Sep-22 01:25N 44°17' E 008°28'0 0.0
2017-Sep-22 00:55N 44°17' E 008°28'0 0.0
2017-Sep-22 00:25N 44°17' E 008°28'0 0.0
2017-Sep-21 23:55N 44°17' E 008°28'0 0.0
2017-Sep-21 23:25N 44°17' E 008°28'0 0.0
2017-Sep-21 22:55N 44°17' E 008°28'0 0.0
2017-Sep-21 22:25N 44°17' E 008°28'0 0.0
2017-Sep-21 21:55N 44°17' E 008°28'0 0.0
2017-Sep-21 21:25N 44°17' E 008°28'0 0.0
2017-Sep-21 20:55N 44°17' E 008°28'0 0.0
2017-Sep-21 20:25N 44°17' E 008°28'0 0.0
2017-Sep-21 19:55N 44°17' E 008°28'0 0.0
2017-Sep-21 19:25N 44°17' E 008°28'0 0.0
2017-Sep-21 18:55N 44°17' E 008°28'0 0.0
2017-Sep-21 18:25N 44°17' E 008°28'0 0.0
2017-Sep-21 17:55N 44°17' E 008°28'0 0.0
2017-Sep-21 17:25N 44°17' E 008°28'0 0.0
2017-Sep-21 16:55N 44°17' E 008°28'0 0.0
2017-Sep-21 16:25N 44°17' E 008°28'0 0.0
2017-Sep-21 15:55N 44°17' E 008°28'0 0.0
2017-Sep-21 15:25N 44°17' E 008°28'0 0.0
2017-Sep-21 14:55N 44°17' E 008°28'0 0.0
2017-Sep-21 14:25N 44°17' E 008°28'0 0.0
2017-Sep-21 13:55N 44°17' E 008°28'0 0.0
2017-Sep-21 13:25N 44°17' E 008°28'0 0.0
2017-Sep-21 12:55N 44°17' E 008°28'0 0.0
2017-Sep-21 12:25N 44°17' E 008°28'0 0.0
2017-Sep-21 11:55N 44°17' E 008°28'0 0.0
2017-Sep-21 11:25N 44°17' E 008°28'0 0.0
2017-Sep-21 10:49N 44°17' E 008°28'0 0.0
2017-Sep-21 10:25N 44°17' E 008°28'0 0.0
2017-Sep-21 09:55N 44°17' E 008°28'0 0.0
2017-Sep-21 09:25N 44°17' E 008°28'0 0.0
2017-Sep-21 08:55N 44°17' E 008°28'0 0.0
2017-Sep-21 08:25N 44°17' E 008°28'0 0.0
2017-Sep-21 07:55N 44°17' E 008°28'0 0.0
2017-Sep-21 07:25N 44°17' E 008°28'0 0.0
2017-Sep-21 06:49N 44°17' E 008°28'0 0.4
2017-Sep-21 06:30N 44°17' E 008°28'1 1.4
2017-Sep-21 06:00N 44°16' E 008°28'1 1.8
2017-Sep-21 05:31N 44°16' E 008°29'0 1.0
2017-Sep-21 05:01N 44°16' E 008°30'0 0.9
2017-Sep-21 04:30N 44°16' E 008°30'1 1.8
2017-Sep-21 04:00N 44°16' E 008°31'1 2.9
2017-Sep-21 03:30N 44°16' E 008°34'3 5.6
2017-Sep-21 03:00N 44°14' E 008°36'4 8.4
2017-Sep-21 02:30N 44°10' E 008°40'510.7
2017-Sep-21 02:00N 44°06' E 008°44'510.8
2017-Sep-21 01:30N 44°02' E 008°49'611.0
2017-Sep-21 00:59N 43°57' E 008°53'511.0
2017-Sep-21 00:31N 43°53' E 008°57'510.9
2017-Sep-21 00:01N 43°48' E 009°02'510.9
2017-Sep-20 23:30N 43°44' E 009°06'510.9
2017-Sep-20 23:00N 43°39' E 009°11'610.9
2017-Sep-20 22:26N 43°35' E 009°16'511.0
2017-Sep-20 22:00N 43°31' E 009°19'510.8
2017-Sep-20 21:31N 43°26' E 009°24'510.8
2017-Sep-20 21:01N 43°22' E 009°28'510.9
2017-Sep-20 20:30N 43°17' E 009°31'510.6
2017-Sep-20 20:00N 43°12' E 009°34'510.4
2017-Sep-20 19:31N 43°07' E 009°36'510.6
2017-Sep-20 19:00N 43°02' E 009°39'2810.8
2017-Sep-20 16:24N 42°35' E 009°48'37010.1
2017-Sep-19 03:53N 36°51' E 012°48'411.8
2017-Sep-19 03:31N 36°50' E 012°53'612.0
2017-Sep-19 03:00N 36°48' E 013°00'611.9
2017-Sep-19 02:30N 36°47' E 013°08'612.1
2017-Sep-19 02:00N 36°45' E 013°15'612.2
2017-Sep-19 01:30N 36°43' E 013°22'612.2
2017-Sep-19 01:00N 36°41' E 013°29'812.1
2017-Sep-19 00:23N 36°40' E 013°38'511.9
2017-Sep-18 23:59N 36°38' E 013°44'2412.0
2017-Sep-18 22:00N 36°32' E 014°12'812.0
2017-Sep-18 21:21N 36°29' E 014°22'412.0
2017-Sep-18 21:00N 36°28' E 014°27'612.1
2017-Sep-18 20:30N 36°26' E 014°34'612.1
2017-Sep-18 20:01N 36°25' E 014°41'612.0
2017-Sep-18 19:30N 36°23' E 014°48'611.8
2017-Sep-18 19:00N 36°21' E 014°55'611.6
2017-Sep-18 18:31N 36°20' E 015°02'611.5
2017-Sep-18 17:58N 36°19' E 015°10'511.5
2017-Sep-18 17:29N 36°19' E 015°17'29912.1
2017-Sep-17 16:44N 35°53' E 021°26'312.8
2017-Sep-17 16:31N 35°53' E 021°29'612.7
2017-Sep-17 16:01N 35°53' E 021°37'611.4
2017-Sep-17 15:31N 35°52' E 021°44'4 7.7
2017-Sep-17 15:01N 35°52' E 021°49'4 7.8
2017-Sep-17 14:31N 35°51' E 021°53'4 7.8
2017-Sep-17 14:01N 35°51' E 021°58'4 7.8
2017-Sep-17 13:30N 35°51' E 022°03'6 7.6
2017-Sep-17 12:42N 35°50' E 022°11'1 7.5
2017-Sep-17 12:31N 35°50' E 022°12'4 7.4
2017-Sep-17 11:58N 35°50' E 022°17'9 7.5
2017-Sep-17 10:47N 35°49' E 022°28'2 8.3
2017-Sep-17 10:30N 35°49' E 022°31'611.7
2017-Sep-17 10:00N 35°48' E 022°38'4012.3
2017-Sep-17 06:45N 35°45' E 023°27'312.9
2017-Sep-17 06:30N 35°45' E 023°31'713.1
2017-Sep-17 06:00N 35°45' E 023°39'712.9
2017-Sep-17 05:30N 35°45' E 023°47'612.3
2017-Sep-17 05:00N 35°44' E 023°55'612.4
2017-Sep-17 04:31N 35°42' E 024°02'712.3
2017-Sep-17 03:55N 35°41' E 024°11'1612.4
2017-Sep-17 02:35N 35°36' E 024°30'112.7
2017-Sep-17 02:31N 35°36' E 024°31'  
Track history (hours):
 
Tides and Currents Weather Stations Pressure Air Temp Water Temp Dewpoint Dewpoint Depression Visibility Wind Speed Wind Dir Waves Ship Positions

Carmel

Last reported at 2017-Sep-26 08:03 UTC. Time now 2017-Sep-26 18:36 UTC.
Position N 35°57' E 014°41'.

Length 244 m; draft 8.2 m.

Type: Ship. MMSI: 249583000.

Date/timePositionNaut miles runAvg speedWind from/ knotsBaromVisibWave heightAir tempDewpointWater temp
2017-Sep-26 08:03N 35°57' E 014°41'1 8.8
2017-Sep-26 07:54N 35°57' E 014°40'3 7.4
2017-Sep-26 07:29N 35°56' E 014°36'1 1.2
2017-Sep-26 07:00N 35°57' E 014°36'0 0.8
2017-Sep-26 06:30N 35°57' E 014°36'1 2.3
2017-Sep-26 06:00N 35°58' E 014°36'3 6.2
2017-Sep-26 05:30N 36°01' E 014°37'4 8.0
2017-Sep-26 05:00N 36°05' E 014°38'3 5.1
2017-Sep-26 04:30N 36°07' E 014°37'4 8.1
2017-Sep-26 04:00N 36°09' E 014°33'5 9.0
2017-Sep-26 03:30N 36°11' E 014°28'4 8.7
2017-Sep-26 02:59N 36°13' E 014°23'4 8.7
2017-Sep-26 02:30N 36°15' E 014°19'1 2.9
2017-Sep-26 02:00N 36°16' E 014°20'3 6.7
2017-Sep-26 01:30N 36°16' E 014°16'4 9.1
2017-Sep-26 01:01N 36°18' E 014°11'5 9.0
2017-Sep-26 00:30N 36°20' E 014°06'5 9.1
2017-Sep-26 00:00N 36°22' E 014°01'4 9.1
2017-Sep-25 23:31N 36°24' E 013°56'4 8.9
2017-Sep-25 23:01N 36°25' E 013°51'4 8.9
2017-Sep-25 22:31N 36°27' E 013°46'5 9.0
2017-Sep-25 22:00N 36°29' E 013°41'5 8.9
2017-Sep-25 21:30N 36°31' E 013°36'4 9.0
2017-Sep-25 21:00N 36°33' E 013°30'56 8.9
2017-Sep-25 14:40N 36°55' E 012°26'  
2017-Sep-22 01:56N 44°17' E 008°28'0 0.0
2017-Sep-22 01:25N 44°17' E 008°28'0 0.0
2017-Sep-22 00:55N 44°17' E 008°28'0 0.0
2017-Sep-22 00:25N 44°17' E 008°28'0 0.0
2017-Sep-21 23:55N 44°17' E 008°28'0 0.0
2017-Sep-21 23:25N 44°17' E 008°28'0 0.0
2017-Sep-21 22:55N 44°17' E 008°28'0 0.0
2017-Sep-21 22:25N 44°17' E 008°28'0 0.0
2017-Sep-21 21:55N 44°17' E 008°28'0 0.0
2017-Sep-21 21:25N 44°17' E 008°28'0 0.0
2017-Sep-21 20:55N 44°17' E 008°28'0 0.0
2017-Sep-21 20:25N 44°17' E 008°28'0 0.0
2017-Sep-21 19:55N 44°17' E 008°28'0 0.0
2017-Sep-21 19:25N 44°17' E 008°28'0 0.0
2017-Sep-21 18:55N 44°17' E 008°28'0 0.0
2017-Sep-21 18:25N 44°17' E 008°28'0 0.0
2017-Sep-21 17:55N 44°17' E 008°28'0 0.0
2017-Sep-21 17:25N 44°17' E 008°28'0 0.0
2017-Sep-21 16:55N 44°17' E 008°28'0 0.0
2017-Sep-21 16:25N 44°17' E 008°28'0 0.0
2017-Sep-21 15:55N 44°17' E 008°28'0 0.0
2017-Sep-21 15:25N 44°17' E 008°28'0 0.0
2017-Sep-21 14:55N 44°17' E 008°28'0 0.0
2017-Sep-21 14:25N 44°17' E 008°28'0 0.0
2017-Sep-21 13:55N 44°17' E 008°28'0 0.0
2017-Sep-21 13:25N 44°17' E 008°28'0 0.0
2017-Sep-21 12:55N 44°17' E 008°28'0 0.0
2017-Sep-21 12:25N 44°17' E 008°28'0 0.0
2017-Sep-21 11:55N 44°17' E 008°28'0 0.0
2017-Sep-21 11:25N 44°17' E 008°28'0 0.0
2017-Sep-21 10:49N 44°17' E 008°28'0 0.0
2017-Sep-21 10:25N 44°17' E 008°28'0 0.0
2017-Sep-21 09:55N 44°17' E 008°28'0 0.0
2017-Sep-21 09:25N 44°17' E 008°28'0 0.0
2017-Sep-21 08:55N 44°17' E 008°28'0 0.0
2017-Sep-21 08:25N 44°17' E 008°28'0 0.0
2017-Sep-21 07:55N 44°17' E 008°28'0 0.0
2017-Sep-21 07:25N 44°17' E 008°28'0 0.0
2017-Sep-21 06:49N 44°17' E 008°28'0 0.4
2017-Sep-21 06:30N 44°17' E 008°28'1 1.4
2017-Sep-21 06:00N 44°16' E 008°28'1 1.8
2017-Sep-21 05:31N 44°16' E 008°29'0 1.0
2017-Sep-21 05:01N 44°16' E 008°30'0 0.9
2017-Sep-21 04:30N 44°16' E 008°30'1 1.8
2017-Sep-21 04:00N 44°16' E 008°31'1 2.9
2017-Sep-21 03:30N 44°16' E 008°34'3 5.6
2017-Sep-21 03:00N 44°14' E 008°36'4 8.4
2017-Sep-21 02:30N 44°10' E 008°40'510.7
2017-Sep-21 02:00N 44°06' E 008°44'510.8
2017-Sep-21 01:30N 44°02' E 008°49'611.0
2017-Sep-21 00:59N 43°57' E 008°53'511.0
2017-Sep-21 00:31N 43°53' E 008°57'510.9
2017-Sep-21 00:01N 43°48' E 009°02'510.9
2017-Sep-20 23:30N 43°44' E 009°06'510.9
2017-Sep-20 23:00N 43°39' E 009°11'610.9
2017-Sep-20 22:26N 43°35' E 009°16'511.0
2017-Sep-20 22:00N 43°31' E 009°19'510.8
2017-Sep-20 21:31N 43°26' E 009°24'510.8
2017-Sep-20 21:01N 43°22' E 009°28'510.9
2017-Sep-20 20:30N 43°17' E 009°31'510.6
2017-Sep-20 20:00N 43°12' E 009°34'510.4
2017-Sep-20 19:31N 43°07' E 009°36'510.6
2017-Sep-20 19:00N 43°02' E 009°39'2810.8
2017-Sep-20 16:24N 42°35' E 009°48'37010.1
2017-Sep-19 03:53N 36°51' E 012°48'411.8
2017-Sep-19 03:31N 36°50' E 012°53'612.0
2017-Sep-19 03:00N 36°48' E 013°00'611.9
2017-Sep-19 02:30N 36°47' E 013°08'612.1
2017-Sep-19 02:00N 36°45' E 013°15'612.2
2017-Sep-19 01:30N 36°43' E 013°22'612.2
2017-Sep-19 01:00N 36°41' E 013°29'812.1
2017-Sep-19 00:23N 36°40' E 013°38'511.9
2017-Sep-18 23:59N 36°38' E 013°44'2412.0
2017-Sep-18 22:00N 36°32' E 014°12'812.0
2017-Sep-18 21:21N 36°29' E 014°22'412.0
2017-Sep-18 21:00N 36°28' E 014°27'612.1
2017-Sep-18 20:30N 36°26' E 014°34'612.1
2017-Sep-18 20:01N 36°25' E 014°41'612.0
2017-Sep-18 19:30N 36°23' E 014°48'611.8
2017-Sep-18 19:00N 36°21' E 014°55'611.6
2017-Sep-18 18:31N 36°20' E 015°02'611.5
2017-Sep-18 17:58N 36°19' E 015°10'511.5
2017-Sep-18 17:29N 36°19' E 015°17'29912.1
2017-Sep-17 16:44N 35°53' E 021°26'312.8
2017-Sep-17 16:31N 35°53' E 021°29'612.7
2017-Sep-17 16:01N 35°53' E 021°37'611.4
2017-Sep-17 15:31N 35°52' E 021°44'4 7.7
2017-Sep-17 15:01N 35°52' E 021°49'4 7.8
2017-Sep-17 14:31N 35°51' E 021°53'4 7.8
2017-Sep-17 14:01N 35°51' E 021°58'4 7.8
2017-Sep-17 13:30N 35°51' E 022°03'6 7.6
2017-Sep-17 12:42N 35°50' E 022°11'1 7.5
2017-Sep-17 12:31N 35°50' E 022°12'4 7.4
2017-Sep-17 11:58N 35°50' E 022°17'9 7.5
2017-Sep-17 10:47N 35°49' E 022°28'2 8.3
2017-Sep-17 10:30N 35°49' E 022°31'611.7
2017-Sep-17 10:00N 35°48' E 022°38'4012.3
2017-Sep-17 06:45N 35°45' E 023°27'312.9
2017-Sep-17 06:30N 35°45' E 023°31'713.1
2017-Sep-17 06:00N 35°45' E 023°39'712.9
2017-Sep-17 05:30N 35°45' E 023°47'612.3
2017-Sep-17 05:00N 35°44' E 023°55'612.4
2017-Sep-17 04:31N 35°42' E 024°02'712.3
2017-Sep-17 03:55N 35°41' E 024°11'1612.4
2017-Sep-17 02:35N 35°36' E 024°30'112.7
2017-Sep-17 02:31N 35°36' E 024°31'  

Dump ship's entire track history